Terminal Aerodrome Forecast
Issued by NWS

Home | Current Version | Previous Version | Text Only | Print | Product List | Glossary On
Versions: 1 2 3 4 5 6 7 8 9 10 11 12
998
FTUS45 KRIW 201725
TAFCPR
TAF
KCPR 201725Z 2018/2118 22020G30KT P6SM FEW110
     FM201900 23028G42KT P6SM FEW070 SCT200
     FM210000 26020G30KT P6SM SCT080 BKN200
     FM210500 25012KT P6SM SCT080 SCT200
     FM211600 26018G26KT P6SM SCT060 SCT200=

USA.gov is the U.S. government's official web portal to all federal, state and local government web resources and services.